sensor_id;sensor_type;location;lat;lon;timestamp;P1;durP1;ratioP1;P2;durP2;ratioP2
16450;SDS011;12243;42.708;23.310;2023-07-31T00:01:57;2.85;;;2.75;;
16450;SDS011;12243;42.708;23.310;2023-07-31T00:04:24;3.47;;;3.28;;
16450;SDS011;12243;42.708;23.310;2023-07-31T00:06:51;3.00;;;2.80;;
16450;SDS011;12243;42.708;23.310;2023-07-31T00:09:18;3.08;;;2.88;;
16450;SDS011;12243;42.708;23.310;2023-07-31T00:11:46;3.55;;;3.33;;
16450;SDS011;12243;42.708;23.310;2023-07-31T00:14:13;3.10;;;3.00;;
16450;SDS011;12243;42.708;23.310;2023-07-31T00:16:40;3.33;;;3.10;;
16450;SDS011;12243;42.708;23.310;2023-07-31T00:19:06;3.58;;;3.28;;
16450;SDS011;12243;42.708;23.310;2023-07-31T00:21:34;3.20;;;3.10;;
16450;SDS011;12243;42.708;23.310;2023-07-31T00:24:01;3.47;;;3.28;;
16450;SDS011;12243;42.708;23.310;2023-07-31T00:26:27;3.50;;;3.22;;
16450;SDS011;12243;42.708;23.310;2023-07-31T00:28:56;3.53;;;3.22;;
16450;SDS011;12243;42.708;23.310;2023-07-31T00:31:22;3.40;;;3.20;;
16450;SDS011;12243;42.708;23.310;2023-07-31T00:33:49;3.45;;;3.17;;
16450;SDS011;12243;42.708;23.310;2023-07-31T00:36:16;3.67;;;3.38;;
16450;SDS011;12243;42.708;23.310;2023-07-31T00:38:44;3.20;;;3.10;;
16450;SDS011;12243;42.708;23.310;2023-07-31T00:41:11;3.40;;;3.20;;
16450;SDS011;12243;42.708;23.310;2023-07-31T00:43:37;3.95;;;3.65;;
16450;SDS011;12243;42.708;23.310;2023-07-31T00:46:07;4.15;;;3.75;;
16450;SDS011;12243;42.708;23.310;2023-07-31T00:48:35;4.25;;;4.03;;
16450;SDS011;12243;42.708;23.310;2023-07-31T00:51:02;3.80;;;3.65;;
16450;SDS011;12243;42.708;23.310;2023-07-31T00:53:29;3.90;;;3.70;;
16450;SDS011;12243;42.708;23.310;2023-07-31T00:56:05;4.30;;;4.00;;
16450;SDS011;12243;42.708;23.310;2023-07-31T00:58:33;5.70;;;5.30;;
16450;SDS011;12243;42.708;23.310;2023-07-31T01:00:59;6.70;;;6.20;;
16450;SDS011;12243;42.708;23.310;2023-07-31T01:03:28;6.95;;;6.45;;
16450;SDS011;12243;42.708;23.310;2023-07-31T01:05:57;7.00;;;6.50;;
16450;SDS011;12243;42.708;23.310;2023-07-31T01:08:35;8.73;;;7.93;;
16450;SDS011;12243;42.708;23.310;2023-07-31T01:11:07;8.48;;;7.72;;
16450;SDS011;12243;42.708;23.310;2023-07-31T01:13:40;9.82;;;9.02;;
16450;SDS011;12243;42.708;23.310;2023-07-31T01:16:08;10.18;;;9.27;;
16450;SDS011;12243;42.708;23.310;2023-07-31T01:18:37;9.45;;;8.55;;
16450;SDS011;12243;42.708;23.310;2023-07-31T01:21:09;10.25;;;9.25;;
16450;SDS011;12243;42.708;23.310;2023-07-31T01:24:15;11.50;;;10.50;;
16450;SDS011;12243;42.708;23.310;2023-07-31T01:26:49;11.82;;;10.70;;
16450;SDS011;12243;42.708;23.310;2023-07-31T01:29:23;12.73;;;11.60;;
16450;SDS011;12243;42.708;23.310;2023-07-31T01:31:59;12.50;;;11.38;;
16450;SDS011;12243;42.708;23.310;2023-07-31T01:34:28;13.25;;;11.75;;
16450;SDS011;12243;42.708;23.310;2023-07-31T01:36:56;12.60;;;11.40;;
16450;SDS011;12243;42.708;23.310;2023-07-31T01:39:24;12.70;;;11.57;;
16450;SDS011;12243;42.708;23.310;2023-07-31T01:41:52;12.93;;;11.73;;
16450;SDS011;12243;42.708;23.310;2023-07-31T01:44:19;13.32;;;12.13;;
16450;SDS011;12243;42.708;23.310;2023-07-31T01:46:46;13.32;;;12.02;;
16450;SDS011;12243;42.708;23.310;2023-07-31T01:49:13;13.60;;;12.50;;
16450;SDS011;12243;42.708;23.310;2023-07-31T01:51:40;14.27;;;12.95;;
16450;SDS011;12243;42.708;23.310;2023-07-31T01:54:07;15.50;;;14.02;;
16450;SDS011;12243;42.708;23.310;2023-07-31T01:56:34;15.38;;;13.88;;
16450;SDS011;12243;42.708;23.310;2023-07-31T01:59:02;15.45;;;13.93;;
16450;SDS011;12243;42.708;23.310;2023-07-31T02:01:29;16.77;;;15.15;;
16450;SDS011;12243;42.708;23.310;2023-07-31T02:03:56;17.55;;;15.70;;
16450;SDS011;12243;42.708;23.310;2023-07-31T02:06:23;17.58;;;15.88;;
16450;SDS011;12243;42.708;23.310;2023-07-31T02:08:49;18.38;;;16.33;;
16450;SDS011;12243;42.708;23.310;2023-07-31T02:11:16;17.55;;;15.85;;
16450;SDS011;12243;42.708;23.310;2023-07-31T02:13:43;18.40;;;16.60;;
16450;SDS011;12243;42.708;23.310;2023-07-31T02:16:12;19.35;;;17.35;;
16450;SDS011;12243;42.708;23.310;2023-07-31T02:18:39;18.25;;;16.35;;
16450;SDS011;12243;42.708;23.310;2023-07-31T02:21:06;19.83;;;17.83;;
16450;SDS011;12243;42.708;23.310;2023-07-31T02:23:33;20.50;;;18.23;;
16450;SDS011;12243;42.708;23.310;2023-07-31T02:25:59;21.67;;;19.50;;
16450;SDS011;12243;42.708;23.310;2023-07-31T02:28:26;19.58;;;17.48;;
16450;SDS011;12243;42.708;23.310;2023-07-31T02:30:53;19.63;;;17.67;;
16450;SDS011;12243;42.708;23.310;2023-07-31T02:33:21;20.02;;;17.95;;
16450;SDS011;12243;42.708;23.310;2023-07-31T02:35:48;20.20;;;18.10;;
16450;SDS011;12243;42.708;23.310;2023-07-31T02:38:16;20.20;;;18.20;;
16450;SDS011;12243;42.708;23.310;2023-07-31T02:40:43;19.45;;;17.55;;
16450;SDS011;12243;42.708;23.310;2023-07-31T02:43:11;20.75;;;18.73;;
16450;SDS011;12243;42.708;23.310;2023-07-31T02:45:37;18.45;;;16.67;;
16450;SDS011;12243;42.708;23.310;2023-07-31T02:48:04;19.42;;;17.38;;
16450;SDS011;12243;42.708;23.310;2023-07-31T02:50:33;20.98;;;18.95;;
16450;SDS011;12243;42.708;23.310;2023-07-31T02:53:00;20.45;;;18.42;;
16450;SDS011;12243;42.708;23.310;2023-07-31T02:55:27;21.70;;;19.50;;
16450;SDS011;12243;42.708;23.310;2023-07-31T02:57:54;19.23;;;17.23;;
16450;SDS011;12243;42.708;23.310;2023-07-31T03:00:20;19.70;;;17.65;;
16450;SDS011;12243;42.708;23.310;2023-07-31T03:02:47;20.23;;;17.75;;
16450;SDS011;12243;42.708;23.310;2023-07-31T03:05:14;19.33;;;17.42;;
16450;SDS011;12243;42.708;23.310;2023-07-31T03:07:43;20.80;;;18.80;;
16450;SDS011;12243;42.708;23.310;2023-07-31T03:10:10;21.60;;;19.33;;
16450;SDS011;12243;42.708;23.310;2023-07-31T03:12:37;21.05;;;19.05;;
16450;SDS011;12243;42.708;23.310;2023-07-31T03:15:04;19.42;;;17.52;;
16450;SDS011;12243;42.708;23.310;2023-07-31T03:17:32;20.05;;;17.98;;
16450;SDS011;12243;42.708;23.310;2023-07-31T03:19:58;19.92;;;18.15;;
16450;SDS011;12243;42.708;23.310;2023-07-31T03:22:25;20.00;;;18.10;;
16450;SDS011;12243;42.708;23.310;2023-07-31T03:24:53;19.98;;;18.10;;
16450;SDS011;12243;42.708;23.310;2023-07-31T03:27:20;20.40;;;18.30;;
16450;SDS011;12243;42.708;23.310;2023-07-31T03:29:47;20.27;;;18.30;;
16450;SDS011;12243;42.708;23.310;2023-07-31T03:32:15;20.48;;;18.30;;
16450;SDS011;12243;42.708;23.310;2023-07-31T03:34:42;20.58;;;18.48;;
16450;SDS011;12243;42.708;23.310;2023-07-31T03:37:09;21.20;;;19.10;;
16450;SDS011;12243;42.708;23.310;2023-07-31T03:39:36;20.90;;;18.73;;
16450;SDS011;12243;42.708;23.310;2023-07-31T03:42:04;19.95;;;17.85;;
16450;SDS011;12243;42.708;23.310;2023-07-31T03:44:32;19.70;;;17.67;;
16450;SDS011;12243;42.708;23.310;2023-07-31T03:46:59;21.80;;;19.20;;
16450;SDS011;12243;42.708;23.310;2023-07-31T03:49:26;21.25;;;19.00;;
16450;SDS011;12243;42.708;23.310;2023-07-31T03:51:53;22.60;;;19.27;;
16450;SDS011;12243;42.708;23.310;2023-07-31T03:54:20;21.23;;;19.08;;
16450;SDS011;12243;42.708;23.310;2023-07-31T03:56:47;20.08;;;17.85;;
16450;SDS011;12243;42.708;23.310;2023-07-31T03:59:16;21.00;;;18.80;;
16450;SDS011;12243;42.708;23.310;2023-07-31T04:01:42;24.73;;;18.02;;
16450;SDS011;12243;42.708;23.310;2023-07-31T04:04:09;23.38;;;20.00;;
16450;SDS011;12243;42.708;23.310;2023-07-31T04:06:36;22.55;;;20.23;;
16450;SDS011;12243;42.708;23.310;2023-07-31T04:09:03;21.25;;;19.08;;
16450;SDS011;12243;42.708;23.310;2023-07-31T04:11:30;22.05;;;19.80;;
16450;SDS011;12243;42.708;23.310;2023-07-31T04:13:57;21.67;;;19.40;;
16450;SDS011;12243;42.708;23.310;2023-07-31T04:16:25;23.33;;;19.95;;
16450;SDS011;12243;42.708;23.310;2023-07-31T04:18:52;21.55;;;19.35;;
16450;SDS011;12243;42.708;23.310;2023-07-31T04:21:18;21.35;;;19.05;;
16450;SDS011;12243;42.708;23.310;2023-07-31T04:23:45;21.70;;;19.38;;
16450;SDS011;12243;42.708;23.310;2023-07-31T04:26:12;22.52;;;20.15;;
16450;SDS011;12243;42.708;23.310;2023-07-31T04:28:39;22.75;;;20.38;;
16450;SDS011;12243;42.708;23.310;2023-07-31T04:31:06;21.83;;;19.58;;
16450;SDS011;12243;42.708;23.310;2023-07-31T04:33:35;22.63;;;19.55;;
16450;SDS011;12243;42.708;23.310;2023-07-31T04:36:02;19.85;;;17.85;;
16450;SDS011;12243;42.708;23.310;2023-07-31T04:38:29;21.85;;;19.42;;
16450;SDS011;12243;42.708;23.310;2023-07-31T04:40:56;22.52;;;20.23;;
16450;SDS011;12243;42.708;23.310;2023-07-31T04:43:23;20.20;;;18.10;;
16450;SDS011;12243;42.708;23.310;2023-07-31T04:45:50;22.45;;;20.05;;
16450;SDS011;12243;42.708;23.310;2023-07-31T04:48:19;21.23;;;18.95;;
16450;SDS011;12243;42.708;23.310;2023-07-31T04:50:48;22.15;;;19.85;;
16450;SDS011;12243;42.708;23.310;2023-07-31T04:53:14;20.75;;;18.48;;
16450;SDS011;12243;42.708;23.310;2023-07-31T04:55:41;21.60;;;19.35;;
16450;SDS011;12243;42.708;23.310;2023-07-31T04:58:08;19.52;;;17.63;;
16450;SDS011;12243;42.708;23.310;2023-07-31T05:00:35;20.05;;;18.05;;
16450;SDS011;12243;42.708;23.310;2023-07-31T05:03:02;19.50;;;17.55;;
16450;SDS011;12243;42.708;23.310;2023-07-31T05:05:30;18.63;;;16.73;;
16450;SDS011;12243;42.708;23.310;2023-07-31T05:07:58;18.70;;;16.90;;
16450;SDS011;12243;42.708;23.310;2023-07-31T05:10:25;17.60;;;15.88;;
16450;SDS011;12243;42.708;23.310;2023-07-31T05:12:52;17.05;;;15.55;;
16450;SDS011;12243;42.708;23.310;2023-07-31T05:15:19;16.30;;;14.80;;
16450;SDS011;12243;42.708;23.310;2023-07-31T05:17:46;15.93;;;14.52;;
16450;SDS011;12243;42.708;23.310;2023-07-31T05:20:12;15.73;;;14.43;;
16450;SDS011;12243;42.708;23.310;2023-07-31T05:22:40;16.40;;;14.93;;
16450;SDS011;12243;42.708;23.310;2023-07-31T05:25:09;15.43;;;14.13;;
16450;SDS011;12243;42.708;23.310;2023-07-31T05:27:36;16.17;;;14.48;;
16450;SDS011;12243;42.708;23.310;2023-07-31T05:30:03;14.85;;;13.45;;
16450;SDS011;12243;42.708;23.310;2023-07-31T05:32:30;14.18;;;12.95;;
16450;SDS011;12243;42.708;23.310;2023-07-31T05:34:57;13.93;;;12.82;;
16450;SDS011;12243;42.708;23.310;2023-07-31T05:37:24;12.32;;;11.13;;
16450;SDS011;12243;42.708;23.310;2023-07-31T05:39:51;13.00;;;11.77;;
16450;SDS011;12243;42.708;23.310;2023-07-31T05:42:19;13.13;;;11.93;;
16450;SDS011;12243;42.708;23.310;2023-07-31T05:44:46;11.20;;;10.18;;
16450;SDS011;12243;42.708;23.310;2023-07-31T05:47:13;10.80;;;9.85;;
16450;SDS011;12243;42.708;23.310;2023-07-31T05:49:40;9.80;;;9.00;;
16450;SDS011;12243;42.708;23.310;2023-07-31T05:52:07;9.68;;;8.77;;
16450;SDS011;12243;42.708;23.310;2023-07-31T05:54:34;10.55;;;9.60;;
16450;SDS011;12243;42.708;23.310;2023-07-31T05:57:00;9.43;;;8.65;;
16450;SDS011;12243;42.708;23.310;2023-07-31T05:59:29;10.75;;;8.23;;
16450;SDS011;12243;42.708;23.310;2023-07-31T06:01:58;8.88;;;8.20;;
16450;SDS011;12243;42.708;23.310;2023-07-31T06:04:25;9.50;;;8.57;;
16450;SDS011;12243;42.708;23.310;2023-07-31T06:06:52;8.10;;;7.40;;
16450;SDS011;12243;42.708;23.310;2023-07-31T06:09:19;8.20;;;7.55;;
16450;SDS011;12243;42.708;23.310;2023-07-31T06:11:46;8.20;;;7.50;;
16450;SDS011;12243;42.708;23.310;2023-07-31T06:14:13;7.28;;;6.78;;
16450;SDS011;12243;42.708;23.310;2023-07-31T06:16:41;7.53;;;7.03;;
16450;SDS011;12243;42.708;23.310;2023-07-31T06:19:09;8.68;;;6.47;;
16450;SDS011;12243;42.708;23.310;2023-07-31T06:21:36;5.75;;;5.35;;
16450;SDS011;12243;42.708;23.310;2023-07-31T06:24:03;5.57;;;5.18;;
16450;SDS011;12243;42.708;23.310;2023-07-31T06:26:30;5.35;;;5.03;;
16450;SDS011;12243;42.708;23.310;2023-07-31T06:28:57;5.80;;;5.38;;
16450;SDS011;12243;42.708;23.310;2023-07-31T06:31:24;5.53;;;5.13;;
16450;SDS011;12243;42.708;23.310;2023-07-31T06:33:56;5.43;;;5.13;;
16450;SDS011;12243;42.708;23.310;2023-07-31T06:36:22;5.38;;;5.07;;
16450;SDS011;12243;42.708;23.310;2023-07-31T06:38:49;6.05;;;5.65;;
16450;SDS011;12243;42.708;23.310;2023-07-31T06:41:16;5.53;;;5.22;;
16450;SDS011;12243;42.708;23.310;2023-07-31T06:43:43;5.25;;;4.85;;
16450;SDS011;12243;42.708;23.310;2023-07-31T06:46:10;4.85;;;4.53;;
16450;SDS011;12243;42.708;23.310;2023-07-31T06:48:37;4.80;;;4.50;;
16450;SDS011;12243;42.708;23.310;2023-07-31T06:51:06;5.05;;;4.60;;
16450;SDS011;12243;42.708;23.310;2023-07-31T06:53:32;4.57;;;4.18;;
16450;SDS011;12243;42.708;23.310;2023-07-31T06:55:59;5.07;;;4.28;;
16450;SDS011;12243;42.708;23.310;2023-07-31T06:58:26;4.78;;;4.32;;
16450;SDS011;12243;42.708;23.310;2023-07-31T07:00:53;5.20;;;4.43;;
16450;SDS011;12243;42.708;23.310;2023-07-31T07:03:20;3.97;;;3.67;;
16450;SDS011;12243;42.708;23.310;2023-07-31T07:05:47;4.63;;;4.18;;
16450;SDS011;12243;42.708;23.310;2023-07-31T07:08:15;4.85;;;4.32;;
16450;SDS011;12243;42.708;23.310;2023-07-31T07:10:43;3.97;;;3.78;;
16450;SDS011;12243;42.708;23.310;2023-07-31T07:13:10;4.55;;;4.13;;
16450;SDS011;12243;42.708;23.310;2023-07-31T07:15:37;3.67;;;3.47;;
16450;SDS011;12243;42.708;23.310;2023-07-31T07:18:04;4.30;;;4.07;;
16450;SDS011;12243;42.708;23.310;2023-07-31T07:20:31;4.20;;;3.90;;
16450;SDS011;12243;42.708;23.310;2023-07-31T07:22:58;4.45;;;4.15;;
16450;SDS011;12243;42.708;23.310;2023-07-31T07:25:27;3.97;;;3.65;;
16450;SDS011;12243;42.708;23.310;2023-07-31T07:27:54;3.60;;;3.30;;
16450;SDS011;12243;42.708;23.310;2023-07-31T07:30:21;7.03;;;3.80;;
16450;SDS011;12243;42.708;23.310;2023-07-31T07:32:50;4.55;;;3.75;;
16450;SDS011;12243;42.708;23.310;2023-07-31T07:35:17;3.63;;;3.42;;
16450;SDS011;12243;42.708;23.310;2023-07-31T07:37:44;4.43;;;3.72;;
16450;SDS011;12243;42.708;23.310;2023-07-31T07:40:11;4.00;;;3.70;;
16450;SDS011;12243;42.708;23.310;2023-07-31T07:42:39;4.53;;;3.50;;
16450;SDS011;12243;42.708;23.310;2023-07-31T07:45:06;3.67;;;3.47;;
16450;SDS011;12243;42.708;23.310;2023-07-31T07:47:34;3.90;;;3.67;;
16450;SDS011;12243;42.708;23.310;2023-07-31T07:50:00;3.60;;;3.40;;
16450;SDS011;12243;42.708;23.310;2023-07-31T07:52:27;3.10;;;2.90;;
16450;SDS011;12243;42.708;23.310;2023-07-31T07:54:54;3.35;;;3.05;;
16450;SDS011;12243;42.708;23.310;2023-07-31T07:57:22;3.25;;;3.05;;
16450;SDS011;12243;42.708;23.310;2023-07-31T07:59:50;3.97;;;3.35;;
16450;SDS011;12243;42.708;23.310;2023-07-31T08:02:17;4.35;;;3.88;;
16450;SDS011;12243;42.708;23.310;2023-07-31T08:04:44;3.53;;;3.33;;
16450;SDS011;12243;42.708;23.310;2023-07-31T08:07:11;3.63;;;3.40;;
16450;SDS011;12243;42.708;23.310;2023-07-31T08:09:38;3.60;;;3.40;;
16450;SDS011;12243;42.708;23.310;2023-07-31T08:12:05;3.55;;;3.25;;
16450;SDS011;12243;42.708;23.310;2023-07-31T08:14:33;4.22;;;3.92;;
16450;SDS011;12243;42.708;23.310;2023-07-31T08:17:02;3.50;;;3.17;;
16450;SDS011;12243;42.708;23.310;2023-07-31T08:19:29;5.25;;;3.30;;
16450;SDS011;12243;42.708;23.310;2023-07-31T08:21:56;3.83;;;3.33;;
16450;SDS011;12243;42.708;23.310;2023-07-31T08:24:23;3.75;;;3.50;;
16450;SDS011;12243;42.708;23.310;2023-07-31T08:26:50;3.10;;;3.00;;
16450;SDS011;12243;42.708;23.310;2023-07-31T08:29:17;4.10;;;3.35;;
16450;SDS011;12243;42.708;23.310;2023-07-31T08:31:44;4.63;;;3.58;;
16450;SDS011;12243;42.708;23.310;2023-07-31T08:34:12;4.10;;;3.17;;
16450;SDS011;12243;42.708;23.310;2023-07-31T08:36:39;3.28;;;3.10;;
16450;SDS011;12243;42.708;23.310;2023-07-31T08:39:06;3.20;;;3.05;;
16450;SDS011;12243;42.708;23.310;2023-07-31T08:41:39;3.20;;;3.00;;
16450;SDS011;12243;42.708;23.310;2023-07-31T08:44:06;2.92;;;2.72;;
16450;SDS011;12243;42.708;23.310;2023-07-31T08:46:34;3.22;;;3.03;;
16450;SDS011;12243;42.708;23.310;2023-07-31T08:49:02;3.78;;;3.45;;
16450;SDS011;12243;42.708;23.310;2023-07-31T08:51:33;3.25;;;2.95;;
16450;SDS011;12243;42.708;23.310;2023-07-31T08:54:00;3.47;;;3.28;;
16450;SDS011;12243;42.708;23.310;2023-07-31T08:56:29;4.22;;;3.30;;
16450;SDS011;12243;42.708;23.310;2023-07-31T08:58:57;3.97;;;3.58;;
16450;SDS011;12243;42.708;23.310;2023-07-31T09:01:26;3.08;;;2.97;;
16450;SDS011;12243;42.708;23.310;2023-07-31T09:03:55;2.90;;;2.80;;
16450;SDS011;12243;42.708;23.310;2023-07-31T09:06:24;2.95;;;2.75;;
16450;SDS011;12243;42.708;23.310;2023-07-31T09:08:56;3.30;;;3.00;;
16450;SDS011;12243;42.708;23.310;2023-07-31T09:11:23;5.25;;;3.03;;
16450;SDS011;12243;42.708;23.310;2023-07-31T09:13:52;3.00;;;2.90;;
16450;SDS011;12243;42.708;23.310;2023-07-31T09:16:26;3.08;;;2.95;;
16450;SDS011;12243;42.708;23.310;2023-07-31T09:18:56;2.97;;;2.88;;
16450;SDS011;12243;42.708;23.310;2023-07-31T09:21:24;3.50;;;3.22;;
16450;SDS011;12243;42.708;23.310;2023-07-31T09:23:53;6.05;;;2.80;;
16450;SDS011;12243;42.708;23.310;2023-07-31T09:26:32;3.15;;;3.05;;
16450;SDS011;12243;42.708;23.310;2023-07-31T09:29:00;3.28;;;3.15;;
16450;SDS011;12243;42.708;23.310;2023-07-31T09:34:16;3.38;;;3.17;;
16450;SDS011;12243;42.708;23.310;2023-07-31T09:36:45;3.33;;;3.13;;
16450;SDS011;12243;42.708;23.310;2023-07-31T09:39:14;2.90;;;2.80;;
16450;SDS011;12243;42.708;23.310;2023-07-31T09:41:44;2.83;;;2.63;;
16450;SDS011;12243;42.708;23.310;2023-07-31T09:44:13;3.03;;;2.80;;
16450;SDS011;12243;42.708;23.310;2023-07-31T09:46:42;2.67;;;2.58;;
16450;SDS011;12243;42.708;23.310;2023-07-31T09:49:09;2.55;;;2.45;;
16450;SDS011;12243;42.708;23.310;2023-07-31T09:51:36;2.67;;;2.28;;
16450;SDS011;12243;42.708;23.310;2023-07-31T09:54:10;3.58;;;2.30;;
16450;SDS011;12243;42.708;23.310;2023-07-31T09:56:40;2.60;;;2.50;;
16450;SDS011;12243;42.708;23.310;2023-07-31T09:59:12;2.42;;;2.30;;
16450;SDS011;12243;42.708;23.310;2023-07-31T10:01:40;2.30;;;2.17;;
16450;SDS011;12243;42.708;23.310;2023-07-31T10:04:08;2.22;;;2.13;;
16450;SDS011;12243;42.708;23.310;2023-07-31T10:06:36;3.25;;;2.95;;
16450;SDS011;12243;42.708;23.310;2023-07-31T10:09:05;2.47;;;2.35;;
16450;SDS011;12243;42.708;23.310;2023-07-31T10:11:34;2.45;;;2.30;;
16450;SDS011;12243;42.708;23.310;2023-07-31T10:14:05;2.22;;;2.13;;
16450;SDS011;12243;42.708;23.310;2023-07-31T10:16:35;3.70;;;2.60;;
16450;SDS011;12243;42.708;23.310;2023-07-31T10:19:08;2.30;;;2.20;;
16450;SDS011;12243;42.708;23.310;2023-07-31T10:21:36;2.55;;;2.15;;
16450;SDS011;12243;42.708;23.310;2023-07-31T10:24:04;2.17;;;2.10;;
16450;SDS011;12243;42.708;23.310;2023-07-31T10:26:31;2.72;;;2.63;;
16450;SDS011;12243;42.708;23.310;2023-07-31T10:28:59;2.50;;;2.40;;
16450;SDS011;12243;42.708;23.310;2023-07-31T10:31:27;2.40;;;2.20;;
16450;SDS011;12243;42.708;23.310;2023-07-31T10:33:57;2.28;;;2.17;;
16450;SDS011;12243;42.708;23.310;2023-07-31T10:36:26;2.45;;;2.33;;
16450;SDS011;12243;42.708;23.310;2023-07-31T10:38:52;2.50;;;2.40;;
16450;SDS011;12243;42.708;23.310;2023-07-31T10:41:27;2.17;;;2.08;;
16450;SDS011;12243;42.708;23.310;2023-07-31T10:43:57;2.50;;;2.40;;
16450;SDS011;12243;42.708;23.310;2023-07-31T10:46:25;4.47;;;2.35;;
16450;SDS011;12243;42.708;23.310;2023-07-31T10:48:58;2.35;;;2.25;;
16450;SDS011;12243;42.708;23.310;2023-07-31T10:51:32;2.20;;;2.10;;
16450;SDS011;12243;42.708;23.310;2023-07-31T10:54:10;2.15;;;2.10;;
16450;SDS011;12243;42.708;23.310;2023-07-31T10:56:38;3.08;;;2.22;;
16450;SDS011;12243;42.708;23.310;2023-07-31T10:59:05;1.98;;;1.88;;
16450;SDS011;12243;42.708;23.310;2023-07-31T11:04:23;2.15;;;1.80;;
16450;SDS011;12243;42.708;23.310;2023-07-31T11:06:56;1.75;;;1.75;;
16450;SDS011;12243;42.708;23.310;2023-07-31T11:09:24;2.20;;;2.10;;
16450;SDS011;12243;42.708;23.310;2023-07-31T11:11:55;2.03;;;1.70;;
16450;SDS011;12243;42.708;23.310;2023-07-31T11:14:22;2.22;;;2.08;;
16450;SDS011;12243;42.708;23.310;2023-07-31T11:16:50;2.28;;;2.20;;
16450;SDS011;12243;42.708;23.310;2023-07-31T11:19:23;2.13;;;2.00;;
16450;SDS011;12243;42.708;23.310;2023-07-31T11:21:50;2.42;;;2.20;;
16450;SDS011;12243;42.708;23.310;2023-07-31T11:24:18;2.13;;;2.03;;
16450;SDS011;12243;42.708;23.310;2023-07-31T11:26:49;2.05;;;1.95;;
16450;SDS011;12243;42.708;23.310;2023-07-31T11:29:17;2.60;;;2.50;;
16450;SDS011;12243;42.708;23.310;2023-07-31T11:31:45;2.15;;;2.08;;
16450;SDS011;12243;42.708;23.310;2023-07-31T11:34:14;2.15;;;2.05;;
16450;SDS011;12243;42.708;23.310;2023-07-31T11:36:53;2.50;;;2.40;;
16450;SDS011;12243;42.708;23.310;2023-07-31T11:39:21;2.90;;;2.65;;
16450;SDS011;12243;42.708;23.310;2023-07-31T11:41:48;3.25;;;2.95;;
16450;SDS011;12243;42.708;23.310;2023-07-31T11:44:15;2.40;;;2.30;;
16450;SDS011;12243;42.708;23.310;2023-07-31T11:46:42;2.70;;;2.60;;
16450;SDS011;12243;42.708;23.310;2023-07-31T11:49:09;2.85;;;2.65;;
16450;SDS011;12243;42.708;23.310;2023-07-31T11:51:36;2.78;;;2.58;;
16450;SDS011;12243;42.708;23.310;2023-07-31T11:54:05;3.13;;;2.65;;
16450;SDS011;12243;42.708;23.310;2023-07-31T11:56:32;2.85;;;2.70;;
16450;SDS011;12243;42.708;23.310;2023-07-31T11:58:59;2.92;;;2.83;;
16450;SDS011;12243;42.708;23.310;2023-07-31T12:01:30;3.25;;;3.15;;
16450;SDS011;12243;42.708;23.310;2023-07-31T12:03:57;3.40;;;3.20;;
16450;SDS011;12243;42.708;23.310;2023-07-31T12:06:32;3.95;;;3.75;;
16450;SDS011;12243;42.708;23.310;2023-07-31T12:09:00;4.03;;;3.83;;
16450;SDS011;12243;42.708;23.310;2023-07-31T12:11:30;4.78;;;4.43;;
16450;SDS011;12243;42.708;23.310;2023-07-31T12:13:57;4.93;;;4.22;;
16450;SDS011;12243;42.708;23.310;2023-07-31T12:16:25;5.00;;;4.70;;
16450;SDS011;12243;42.708;23.310;2023-07-31T12:18:53;3.85;;;3.55;;
16450;SDS011;12243;42.708;23.310;2023-07-31T12:21:20;4.45;;;4.15;;
16450;SDS011;12243;42.708;23.310;2023-07-31T12:23:47;5.50;;;5.10;;
16450;SDS011;12243;42.708;23.310;2023-07-31T12:26:15;8.20;;;4.70;;
16450;SDS011;12243;42.708;23.310;2023-07-31T12:28:45;5.03;;;4.72;;
16450;SDS011;12243;42.708;23.310;2023-07-31T12:31:13;4.32;;;4.10;;
16450;SDS011;12243;42.708;23.310;2023-07-31T12:33:42;4.30;;;3.92;;
16450;SDS011;12243;42.708;23.310;2023-07-31T12:36:10;4.28;;;4.05;;
16450;SDS011;12243;42.708;23.310;2023-07-31T12:38:38;3.97;;;3.78;;
16450;SDS011;12243;42.708;23.310;2023-07-31T12:41:05;4.88;;;4.47;;
16450;SDS011;12243;42.708;23.310;2023-07-31T12:43:32;4.60;;;4.30;;
16450;SDS011;12243;42.708;23.310;2023-07-31T12:46:04;5.15;;;4.85;;
16450;SDS011;12243;42.708;23.310;2023-07-31T12:48:33;5.63;;;5.13;;
16450;SDS011;12243;42.708;23.310;2023-07-31T12:51:00;6.03;;;5.30;;
16450;SDS011;12243;42.708;23.310;2023-07-31T12:53:27;5.70;;;5.18;;
16450;SDS011;12243;42.708;23.310;2023-07-31T12:55:54;5.45;;;5.15;;
16450;SDS011;12243;42.708;23.310;2023-07-31T12:58:22;5.25;;;4.82;;
16450;SDS011;12243;42.708;23.310;2023-07-31T13:00:49;5.40;;;5.00;;
16450;SDS011;12243;42.708;23.310;2023-07-31T13:03:17;5.65;;;5.35;;
16450;SDS011;12243;42.708;23.310;2023-07-31T13:05:44;5.90;;;5.40;;
16450;SDS011;12243;42.708;23.310;2023-07-31T13:08:11;4.85;;;4.60;;
16450;SDS011;12243;42.708;23.310;2023-07-31T13:10:40;5.20;;;4.80;;
16450;SDS011;12243;42.708;23.310;2023-07-31T13:13:08;5.00;;;4.70;;
16450;SDS011;12243;42.708;23.310;2023-07-31T13:15:36;5.05;;;4.70;;
16450;SDS011;12243;42.708;23.310;2023-07-31T13:18:03;4.28;;;4.07;;
16450;SDS011;12243;42.708;23.310;2023-07-31T13:20:32;3.97;;;3.88;;
16450;SDS011;12243;42.708;23.310;2023-07-31T13:22:58;5.35;;;4.85;;
16450;SDS011;12243;42.708;23.310;2023-07-31T13:25:25;4.10;;;3.90;;
16450;SDS011;12243;42.708;23.310;2023-07-31T13:27:52;4.45;;;4.15;;
16450;SDS011;12243;42.708;23.310;2023-07-31T13:30:19;4.55;;;4.25;;
16450;SDS011;12243;42.708;23.310;2023-07-31T13:32:46;4.68;;;4.38;;
16450;SDS011;12243;42.708;23.310;2023-07-31T13:35:13;4.25;;;4.05;;
16450;SDS011;12243;42.708;23.310;2023-07-31T13:37:41;4.72;;;4.32;;
16450;SDS011;12243;42.708;23.310;2023-07-31T13:40:08;5.13;;;4.68;;
16450;SDS011;12243;42.708;23.310;2023-07-31T13:42:36;5.32;;;4.30;;
16450;SDS011;12243;42.708;23.310;2023-07-31T13:45:03;3.95;;;3.72;;
16450;SDS011;12243;42.708;23.310;2023-07-31T13:47:31;5.18;;;3.80;;
16450;SDS011;12243;42.708;23.310;2023-07-31T13:49:58;3.70;;;3.60;;
16450;SDS011;12243;42.708;23.310;2023-07-31T13:52:25;3.90;;;3.70;;
16450;SDS011;12243;42.708;23.310;2023-07-31T13:54:54;3.33;;;3.20;;
16450;SDS011;12243;42.708;23.310;2023-07-31T13:57:21;6.47;;;3.53;;
16450;SDS011;12243;42.708;23.310;2023-07-31T13:59:48;4.30;;;3.88;;
16450;SDS011;12243;42.708;23.310;2023-07-31T14:02:15;4.07;;;3.72;;
16450;SDS011;12243;42.708;23.310;2023-07-31T14:04:42;4.25;;;3.95;;
16450;SDS011;12243;42.708;23.310;2023-07-31T14:07:09;4.07;;;3.88;;
16450;SDS011;12243;42.708;23.310;2023-07-31T14:09:36;4.03;;;3.72;;
16450;SDS011;12243;42.708;23.310;2023-07-31T14:12:05;4.22;;;4.03;;
16450;SDS011;12243;42.708;23.310;2023-07-31T14:14:32;4.40;;;4.10;;
16450;SDS011;12243;42.708;23.310;2023-07-31T14:17:00;4.00;;;3.80;;
16450;SDS011;12243;42.708;23.310;2023-07-31T14:19:27;4.18;;;3.80;;
16450;SDS011;12243;42.708;23.310;2023-07-31T14:21:54;4.38;;;4.07;;
16450;SDS011;12243;42.708;23.310;2023-07-31T14:24:21;3.83;;;3.55;;
16450;SDS011;12243;42.708;23.310;2023-07-31T14:26:47;4.20;;;4.00;;
16450;SDS011;12243;42.708;23.310;2023-07-31T14:29:16;5.32;;;3.58;;
16450;SDS011;12243;42.708;23.310;2023-07-31T14:31:42;3.83;;;3.63;;
16450;SDS011;12243;42.708;23.310;2023-07-31T14:34:09;3.90;;;3.70;;
16450;SDS011;12243;42.708;23.310;2023-07-31T14:36:36;3.60;;;3.40;;